Time;durP1;ratioP1;P1;durP2;ratioP2;P2;SDS_P1;SDS_P2;PMS_P1;PMS_P2;Temp;Humidity;BMP_temperature;BMP_pressure;BME280_temperature;BME280_humidity;BME280_pressure;Samples;Min_cycle;Max_cycle;Signal;HPM_P1;HPM_P2
2022/07/26 00:00:11;;;;;;;1.15;0.95;;;;;;;16.43;100.00;99220.44;1749755;79;22115;-52
2022/07/26 00:02:38;;;;;;;3.27;1.37;;;;;;;16.44;100.00;99226.24;1759705;79;21523;-54
2022/07/26 00:05:07;;;;;;;1.62;0.95;;;;;;;16.42;100.00;99218.70;1759107;79;21093;-52
2022/07/26 00:07:33;;;;;;;1.05;1.00;;;;;;;16.42;100.00;99221.42;1757688;79;21422;-54
2022/07/26 00:10:00;;;;;;;1.92;1.00;;;;;;;16.37;100.00;99219.58;1682109;83;21698;-53
2022/07/26 00:12:26;;;;;;;2.25;1.20;;;;;;;16.31;100.00;99213.78;1753869;79;21488;-52
2022/07/26 00:14:52;;;;;;;5.33;1.12;;;;;;;16.22;100.00;99212.17;1756906;79;21072;-51
2022/07/26 00:17:20;;;;;;;1.00;0.80;;;;;;;16.16;100.00;99210.45;1673358;83;21105;-52
2022/07/26 00:19:47;;;;;;;1.62;1.05;;;;;;;16.12;100.00;99208.95;1752798;79;21145;-52
2022/07/26 00:24:58;;;;;;;1.52;0.80;;;;;;;16.03;100.00;99211.91;1754912;79;21054;-52
2022/07/26 00:27:24;;;;;;;1.85;0.90;;;;;;;16.03;100.00;99209.19;1755778;79;21493;-52
2022/07/26 00:29:51;;;;;;;3.87;1.05;;;;;;;16.00;100.00;99209.91;1758363;79;21078;-53
2022/07/26 00:32:18;;;;;;;3.85;1.20;;;;;;;15.99;100.00;99212.28;1756439;79;21221;-51
2022/07/26 00:34:44;;;;;;;1.90;1.10;;;;;;;15.97;100.00;99207.45;1739748;80;21021;-51
2022/07/26 00:37:10;;;;;;;2.92;1.30;;;;;;;15.96;100.00;99210.66;1745372;80;21105;-53
2022/07/26 00:39:37;;;;;;;3.40;0.90;;;;;;;15.93;100.00;99210.89;1743266;80;21046;-53
2022/07/26 00:42:04;;;;;;;1.92;1.17;;;;;;;15.87;100.00;99205.46;1739209;80;21714;-52
2022/07/26 00:44:38;;;;;;;1.27;0.88;;;;;;;15.79;100.00;99205.20;1739035;80;21081;-51
2022/07/26 00:47:05;;;;;;;1.90;0.90;;;;;;;15.74;100.00;99201.96;1746393;80;21070;-52
2022/07/26 00:49:31;;;;;;;2.17;1.20;;;;;;;15.70;100.00;99205.05;1735103;80;21065;-52
2022/07/26 00:51:58;;;;;;;2.30;1.07;;;;;;;15.68;100.00;99199.73;1749162;80;21073;-51
2022/07/26 00:54:24;;;;;;;1.45;1.00;;;;;;;15.65;100.00;99199.13;1740525;80;21446;-52
2022/07/26 00:56:52;;;;;;;1.37;1.00;;;;;;;15.61;100.00;99202.56;1735730;80;21123;-52
2022/07/26 00:59:19;;;;;;;1.65;1.00;;;;;;;15.56;100.00;99207.48;1749701;80;20994;-52
2022/07/26 01:01:45;;;;;;;1.40;0.85;;;;;;;15.51;100.00;99201.02;1739723;80;20958;-52
2022/07/26 01:04:12;;;;;;;1.67;0.90;;;;;;;15.48;100.00;99199.88;1742763;80;21292;-51
2022/07/26 01:06:39;;;;;;;1.80;0.72;;;;;;;15.45;100.00;99200.14;1745834;80;21391;-51
2022/07/26 01:09:06;;;;;;;2.83;1.00;;;;;;;15.45;100.00;99196.55;1737860;80;21057;-52
2022/07/26 01:11:34;;;;;;;3.17;1.00;;;;;;;15.45;100.00;99193.84;1724593;80;21081;-52
2022/07/26 01:14:00;;;;;;;4.60;1.10;;;;;;;15.47;100.00;99200.89;1737111;80;21561;-53
2022/07/26 01:16:27;;;;;;;0.98;0.90;;;;;;;15.49;100.00;99193.48;1740190;80;21430;-51
2022/07/26 01:18:54;;;;;;;1.65;0.90;;;;;;;15.51;100.00;99195.59;1743176;80;21264;-52
2022/07/26 01:21:20;;;;;;;1.00;0.90;;;;;;;15.51;100.00;99196.94;1743456;80;21738;-52
2022/07/26 01:23:47;;;;;;;1.65;0.98;;;;;;;15.51;100.00;99194.72;1752034;80;20950;-52
2022/07/26 01:26:14;;;;;;;2.12;0.90;;;;;;;15.47;100.00;99193.24;1738996;80;21401;-53
2022/07/26 01:28:41;;;;;;;1.52;0.80;;;;;;;15.43;100.00;99190.38;1739851;80;20915;-53
2022/07/26 01:31:08;;;;;;;3.62;0.80;;;;;;;15.38;100.00;99197.53;1745785;80;21557;-52
2022/07/26 01:33:34;;;;;;;1.72;0.98;;;;;;;15.34;100.00;99197.86;1760048;79;21657;-52
2022/07/26 01:36:01;;;;;;;1.45;0.80;;;;;;;15.30;100.00;99195.89;1764639;79;21027;-53
2022/07/26 01:38:28;;;;;;;2.77;0.80;;;;;;;15.30;100.00;99199.09;1762833;79;21061;-52
2022/07/26 01:40:55;;;;;;;1.00;0.90;;;;;;;15.31;100.00;99192.70;1762193;79;21081;-53
2022/07/26 01:43:22;;;;;;;1.05;0.80;;;;;;;15.32;100.00;99192.55;1760825;79;21071;-52
2022/07/26 01:45:49;;;;;;;1.07;0.98;;;;;;;15.31;100.00;99193.52;1766051;79;21121;-53
2022/07/26 01:48:15;;;;;;;1.15;0.93;;;;;;;15.29;100.00;99194.65;1765479;79;21747;-53
2022/07/26 01:50:42;;;;;;;0.90;0.90;;;;;;;15.24;100.00;99192.76;1765797;79;21117;-53
2022/07/26 01:53:09;;;;;;;1.75;0.70;;;;;;;15.17;100.00;99191.50;1766237;79;21036;-53
2022/07/26 01:55:36;;;;;;;1.32;0.72;;;;;;;15.12;100.00;99199.51;1759673;79;21033;-53
2022/07/26 01:58:04;;;;;;;1.35;0.82;;;;;;;15.07;100.00;99193.55;1762984;79;21578;-53
2022/07/26 02:00:32;;;;;;;5.20;0.70;;;;;;;15.02;100.00;99187.63;1764240;79;21030;-52
2022/07/26 02:02:58;;;;;;;1.35;0.90;;;;;;;15.00;100.00;99195.48;1762295;79;21507;-52
2022/07/26 02:05:25;;;;;;;3.00;0.80;;;;;;;14.99;100.00;99191.04;1761307;79;21596;-52
2022/07/26 02:07:51;;;;;;;2.30;0.90;;;;;;;14.96;100.00;99185.38;1760961;79;21018;-52
2022/07/26 02:10:18;;;;;;;1.63;1.10;;;;;;;14.95;100.00;99190.42;1759606;79;21119;-52
2022/07/26 02:12:44;;;;;;;1.45;0.98;;;;;;;14.93;100.00;99186.95;1763329;79;21602;-53
2022/07/26 02:15:12;;;;;;;3.75;0.80;;;;;;;14.93;100.00;99185.60;1759197;79;21667;-53
2022/07/26 02:17:38;;;;;;;1.82;0.80;;;;;;;14.93;100.00;99175.25;1760175;79;21293;-53
2022/07/26 02:20:07;;;;;;;2.10;0.82;;;;;;;14.93;100.00;99173.89;1765818;79;21077;-53
2022/07/26 02:22:33;;;;;;;0.70;0.70;;;;;;;14.91;100.00;99180.78;1756098;79;21468;-52
2022/07/26 02:24:59;;;;;;;1.57;0.70;;;;;;;14.88;100.00;99188.30;1758320;79;22184;-52
2022/07/26 02:27:26;;;;;;;4.00;1.00;;;;;;;14.85;100.00;99182.60;1760214;79;21512;-51
2022/07/26 02:29:52;;;;;;;1.00;0.70;;;;;;;14.85;100.00;99188.51;1765509;79;21337;-52
2022/07/26 02:32:18;;;;;;;2.25;0.80;;;;;;;14.87;100.00;99190.13;1761180;79;21002;-52
2022/07/26 02:34:45;;;;;;;1.98;0.80;;;;;;;14.88;100.00;99191.87;1765918;79;22512;-52
2022/07/26 02:37:11;;;;;;;1.10;1.00;;;;;;;14.89;100.00;99191.34;1769519;79;21042;-52
2022/07/26 02:39:38;;;;;;;1.37;0.70;;;;;;;14.88;100.00;99195.06;1763920;79;21116;-52
2022/07/26 02:42:04;;;;;;;1.15;0.88;;;;;;;14.85;100.00;99194.80;1773412;79;21062;-53
2022/07/26 02:44:30;;;;;;;3.58;0.78;;;;;;;14.79;100.00;99193.03;1769295;79;21011;-52
2022/07/26 02:46:57;;;;;;;1.45;0.65;;;;;;;14.71;100.00;99193.13;1770183;79;21083;-52
2022/07/26 02:49:23;;;;;;;0.90;0.70;;;;;;;14.66;100.00;99195.28;1770053;79;21394;-52
2022/07/26 02:51:50;;;;;;;1.20;0.70;;;;;;;14.64;100.00;99193.17;1767800;79;21014;-52
2022/07/26 02:54:17;;;;;;;0.88;0.78;;;;;;;14.65;100.00;99189.97;1770521;79;21527;-52
2022/07/26 02:56:43;;;;;;;0.88;0.80;;;;;;;14.67;100.00;99188.89;1767840;79;21040;-53
2022/07/26 02:59:10;;;;;;;2.10;1.00;;;;;;;14.73;100.00;99198.40;1769817;79;22100;-51
2022/07/26 03:01:38;;;;;;;1.67;0.80;;;;;;;14.73;100.00;99196.55;1769342;79;21050;-52
2022/07/26 03:04:06;;;;;;;2.05;0.85;;;;;;;14.71;100.00;99192.25;1770224;79;21590;-51
2022/07/26 03:06:33;;;;;;;0.70;0.70;;;;;;;14.68;100.00;99191.11;1763337;79;21073;-52
2022/07/26 03:08:59;;;;;;;3.45;0.70;;;;;;;14.66;100.00;99187.65;1764470;79;21058;-51
2022/07/26 03:11:25;;;;;;;1.12;0.80;;;;;;;14.66;100.00;99186.30;1768573;79;21615;-51
2022/07/26 03:13:52;;;;;;;1.10;0.72;;;;;;;14.68;100.00;99187.05;1768723;79;21093;-53
2022/07/26 03:16:18;;;;;;;0.65;0.60;;;;;;;14.69;100.00;99190.14;1764374;79;21729;-53
2022/07/26 03:18:45;;;;;;;1.60;0.80;;;;;;;14.72;100.00;99188.05;1769008;79;21473;-52
2022/07/26 03:21:11;;;;;;;2.75;0.70;;;;;;;14.79;100.00;99186.27;1767865;79;21540;-53
2022/07/26 03:23:37;;;;;;;1.17;0.70;;;;;;;14.83;100.00;99187.75;1767839;79;21944;-51
2022/07/26 03:26:04;;;;;;;7.25;0.78;;;;;;;14.88;100.00;99189.64;1765496;79;21061;-52
2022/07/26 03:28:32;;;;;;;0.88;0.80;;;;;;;14.93;100.00;99183.38;1702254;82;21066;-53
2022/07/26 03:30:58;;;;;;;1.98;0.85;;;;;;;15.00;100.00;99190.06;1715137;81;21013;-52
2022/07/26 03:33:25;;;;;;;2.47;0.80;;;;;;;15.02;100.00;99188.98;1707782;81;21090;-51
2022/07/26 03:35:51;;;;;;;1.00;0.80;;;;;;;15.06;100.00;99185.53;1701745;82;21536;-52
2022/07/26 03:38:18;;;;;;;0.72;0.70;;;;;;;15.09;100.00;99183.95;1696172;82;21110;-53
2022/07/26 03:40:44;;;;;;;2.77;0.80;;;;;;;15.15;100.00;99187.05;1699062;82;21090;-52
2022/07/26 03:43:10;;;;;;;0.60;0.60;;;;;;;15.21;100.00;99193.02;1701094;82;21070;-53
2022/07/26 03:45:37;;;;;;;0.65;0.62;;;;;;;15.27;100.00;99192.53;1696688;82;21038;-52
2022/07/26 03:48:04;;;;;;;0.70;0.70;;;;;;;15.33;100.00;99186.15;1702898;82;21699;-52
2022/07/26 03:50:31;;;;;;;0.60;0.60;;;;;;;15.41;100.00;99189.62;1701884;82;21035;-52
2022/07/26 03:52:57;;;;;;;0.60;0.55;;;;;;;15.50;100.00;99192.98;1697117;82;21659;-53
2022/07/26 03:58:09;;;;;;;1.72;0.80;;;;;;;15.68;100.00;99189.38;1701445;82;21117;-51
2022/07/26 04:00:35;;;;;;;1.00;0.70;;;;;;;15.79;100.00;99191.63;1700031;82;21909;-52
2022/07/26 04:03:02;;;;;;;0.80;0.80;;;;;;;15.88;100.00;99193.63;1701351;82;20999;-52
2022/07/26 04:05:28;;;;;;;1.25;0.70;;;;;;;15.99;100.00;99194.11;1698754;82;20959;-52
2022/07/26 04:07:54;;;;;;;0.72;0.70;;;;;;;16.09;100.00;99195.61;1702360;82;20999;-53
2022/07/26 04:10:21;;;;;;;1.52;0.72;;;;;;;16.17;100.00;99195.86;1702341;82;20986;-52
2022/07/26 04:12:49;;;;;;;1.10;0.72;;;;;;;16.25;100.00;99198.33;1696724;82;21155;-52
2022/07/26 04:15:17;;;;;;;0.80;0.60;;;;;;;16.35;100.00;99203.89;1701388;82;20931;-52
2022/07/26 04:17:44;;;;;;;2.20;0.80;;;;;;;16.44;100.00;99205.00;1701594;82;20931;-51
2022/07/26 04:20:11;;;;;;;3.20;0.70;;;;;;;16.52;100.00;99200.67;1702060;82;21031;-52
2022/07/26 04:22:38;;;;;;;0.95;0.70;;;;;;;16.60;100.00;99202.77;1700278;82;20927;-53
2022/07/26 04:25:06;;;;;;;1.47;0.78;;;;;;;16.69;100.00;99201.19;1698456;82;21282;-52
2022/07/26 04:27:32;;;;;;;1.77;0.70;;;;;;;16.78;100.00;99205.38;1701433;82;20912;-53
2022/07/26 04:29:58;;;;;;;1.47;0.80;;;;;;;16.89;100.00;99204.50;1697867;82;21374;-53
2022/07/26 04:32:25;;;;;;;1.32;0.80;;;;;;;17.00;100.00;99200.41;1699870;82;21382;-52
2022/07/26 04:34:51;;;;;;;1.60;1.00;;;;;;;17.11;100.00;99202.20;1705880;81;21103;-52
2022/07/26 04:37:17;;;;;;;1.42;0.70;;;;;;;17.19;100.00;99200.56;1712472;81;21240;-52
2022/07/26 04:55:44;;;;;;;1.72;0.88;;;;;;;17.33;100.00;99204.37;1710856;81;20926;-53
2022/07/26 05:01:29;;;;;;;1.90;1.12;;;;;;;17.33;100.00;99204.37;1500998;81;975326;-53
2022/07/26 05:03:55;;;;;;;3.50;1.62;;;;;;;17.33;100.00;99204.37;1712344;81;21113;-52
2022/07/26 05:06:21;;;;;;;5.60;1.72;;;;;;;18.11;100.00;99214.87;1710341;81;21101;-53
2022/07/26 05:08:48;;;;;;;4.80;1.80;;;;;;;18.12;100.00;99214.34;1763036;79;21068;-54
2022/07/26 05:11:14;;;;;;;4.55;1.50;;;;;;;18.15;100.00;99216.31;1757953;80;21024;-53
2022/07/26 05:13:41;;;;;;;2.58;1.30;;;;;;;18.18;100.00;99214.32;1757865;79;21248;-54
2022/07/26 05:16:07;;;;;;;3.92;1.47;;;;;;;18.24;100.00;99220.58;1761791;79;21133;-54
2022/07/26 05:18:34;;;;;;;2.75;1.75;;;;;;;18.27;100.00;99217.59;1760788;80;21041;-54
2022/07/26 05:21:00;;;;;;;5.62;1.42;;;;;;;18.33;100.00;99219.77;1761080;79;21492;-54
2022/07/26 05:23:26;;;;;;;5.58;1.90;;;;;;;18.37;100.00;99213.90;1698242;82;21117;-53
2022/07/26 05:25:54;;;;;;;1.70;1.60;;;;;;;18.46;100.00;99217.67;1759796;79;22904;-54
2022/07/26 05:28:20;;;;;;;6.30;1.65;;;;;;;18.53;100.00;99217.52;1760584;80;21047;-54
2022/07/26 05:30:47;;;;;;;3.00;1.92;;;;;;;18.60;100.00;99214.63;1759859;79;21042;-54
2022/07/26 05:33:13;;;;;;;4.35;1.70;;;;;;;18.67;100.00;99213.57;1758507;80;21085;-53
2022/07/26 05:35:40;;;;;;;4.33;1.80;;;;;;;18.75;100.00;99217.83;1763135;80;21064;-53
2022/07/26 05:38:06;;;;;;;2.40;1.20;;;;;;;18.82;100.00;99215.77;1762389;79;21098;-53
2022/07/26 05:40:32;;;;;;;5.20;1.32;;;;;;;18.87;100.00;99212.64;1759658;80;21525;-53
2022/07/26 05:42:59;;;;;;;4.87;1.45;;;;;;;18.94;100.00;99211.08;1763564;79;21527;-53
2022/07/26 05:45:25;;;;;;;5.72;1.50;;;;;;;19.02;100.00;99207.15;1755863;80;21508;-53
2022/07/26 05:47:52;;;;;;;2.90;1.37;;;;;;;19.10;100.00;99207.80;1760919;79;21433;-54
2022/07/26 05:50:18;;;;;;;2.98;1.40;;;;;;;19.17;100.00;99197.55;1763783;79;22354;-55
2022/07/26 05:52:45;;;;;;;5.00;1.40;;;;;;;19.26;100.00;99208.98;1756852;79;21046;-55
2022/07/26 05:55:11;;;;;;;4.95;1.25;;;;;;;19.35;100.00;99204.53;1755576;79;21073;-58
2022/07/26 05:57:40;;;;;;;2.65;1.35;;;;;;;19.44;100.00;99204.18;1761743;79;21045;-54
2022/07/26 06:00:09;;;;;;;2.60;1.30;;;;;;;19.50;100.00;99207.72;1763093;79;21065;-53
2022/07/26 06:02:39;;;;;;;3.35;1.10;;;;;;;19.55;100.00;99204.08;1762002;79;21187;-54
2022/07/26 06:05:06;;;;;;;3.55;1.35;;;;;;;19.61;100.00;99202.13;1757880;79;21529;-52
2022/07/26 06:07:32;;;;;;;4.17;1.10;;;;;;;19.67;100.00;99203.41;1755804;79;22273;-54
2022/07/26 06:09:59;;;;;;;2.55;1.05;;;;;;;19.72;100.00;99202.49;1757233;79;21520;-55
2022/07/26 06:12:25;;;;;;;2.85;0.90;;;;;;;19.78;100.00;99198.67;1757584;79;21069;-54
2022/07/26 06:14:52;;;;;;;5.33;1.02;;;;;;;19.86;100.00;99189.24;1759957;79;21099;-54
2022/07/26 06:17:18;;;;;;;1.35;0.75;;;;;;;19.94;100.00;99195.34;1762207;79;21121;-54
2022/07/26 06:19:45;;;;;;;1.98;0.80;;;;;;;20.01;100.00;99196.47;1758391;80;21050;-54
2022/07/26 06:22:11;;;;;;;0.93;0.68;;;;;;;20.03;100.00;99191.22;1758177;80;21040;-56
2022/07/26 06:24:37;;;;;;;1.00;0.70;;;;;;;20.05;100.00;99191.08;1758421;79;21226;-55
2022/07/26 06:27:04;;;;;;;1.92;0.90;;;;;;;20.09;100.00;99183.44;1756882;79;21164;-55
2022/07/26 06:29:30;;;;;;;2.42;0.68;;;;;;;20.16;100.00;99179.95;1758947;79;21097;-55
2022/07/26 06:31:57;;;;;;;1.82;0.62;;;;;;;20.28;100.00;99183.39;1760051;79;21104;-55
2022/07/26 06:34:23;;;;;;;0.88;0.55;;;;;;;20.35;100.00;99182.67;1763345;79;21065;-55
2022/07/26 06:36:49;;;;;;;1.20;0.70;;;;;;;20.47;100.00;99181.12;1761589;79;21408;-53
2022/07/26 06:39:16;;;;;;;1.10;0.57;;;;;;;20.53;100.00;99169.08;1765338;79;21218;-53
2022/07/26 06:41:42;;;;;;;1.25;0.60;;;;;;;20.58;100.00;99170.87;1759701;79;21031;-55
2022/07/26 06:44:09;;;;;;;1.62;0.70;;;;;;;20.62;100.00;99167.30;1760241;79;21521;-53
2022/07/26 06:48:47;;;;;;;2.05;0.60;;;;;;;20.76;100.00;99172.26;1796944;78;28185;-53
2022/07/26 06:51:14;;;;;;;2.12;0.65;;;;;;;20.76;100.00;99174.99;1772485;79;20989;-53
2022/07/26 06:53:40;;;;;;;0.98;0.60;;;;;;;20.83;100.00;99168.43;1769153;79;22442;-53
2022/07/26 06:56:07;;;;;;;1.60;0.60;;;;;;;20.91;100.00;99169.39;1770472;79;21048;-54
2022/07/26 06:58:33;;;;;;;1.07;0.60;;;;;;;21.00;100.00;99170.34;1766365;79;21426;-54
2022/07/26 07:01:00;;;;;;;1.15;0.50;;;;;;;21.11;100.00;99168.22;1768730;79;21554;-54
2022/07/26 07:03:26;;;;;;;1.87;0.70;;;;;;;21.24;100.00;99165.66;1767149;79;21027;-54
2022/07/26 07:05:53;;;;;;;0.90;0.53;;;;;;;21.34;100.00;99169.19;1771779;79;21254;-53
2022/07/26 07:08:21;;;;;;;6.33;0.60;;;;;;;21.39;100.00;99166.83;1771805;79;21013;-53
2022/07/26 07:10:47;;;;;;;4.42;0.65;;;;;;;21.49;100.00;99159.41;1736709;81;20867;-54
2022/07/26 07:13:14;;;;;;;1.65;0.98;;;;;;;21.58;100.00;99163.94;1736485;81;21065;-53
2022/07/26 07:15:40;;;;;;;0.57;0.50;;;;;;;21.61;100.00;99161.37;1707936;81;21080;-54
2022/07/26 07:18:07;;;;;;;1.98;0.62;;;;;;;21.60;100.00;99166.52;1703715;82;21165;-53
2022/07/26 07:20:33;;;;;;;1.25;0.90;;;;;;;21.58;100.00;99158.45;1721491;82;21473;-54
2022/07/26 07:23:00;;;;;;;1.20;0.60;;;;;;;21.56;100.00;99161.86;1716515;82;20981;-54
2022/07/26 07:25:27;;;;;;;1.75;0.65;;;;;;;21.55;100.00;99154.66;1715450;81;21357;-54
2022/07/26 07:27:54;;;;;;;0.75;0.55;;;;;;;21.58;100.00;99153.49;1712561;81;20973;-53
2022/07/26 07:30:20;;;;;;;1.57;0.80;;;;;;;21.60;100.00;99147.36;1709577;83;21166;-54
2022/07/26 07:32:47;;;;;;;0.70;0.60;;;;;;;21.62;100.00;99141.19;1713856;83;21295;-53
2022/07/26 07:35:13;;;;;;;0.82;0.40;;;;;;;21.62;100.00;99143.92;1712538;83;20859;-54
2022/07/26 07:37:41;;;;;;;0.72;0.60;;;;;;;21.61;100.00;99147.67;1710990;83;20983;-54
2022/07/26 07:40:09;;;;;;;0.85;0.50;;;;;;;21.59;100.00;99146.49;1713015;82;20920;-54
2022/07/26 07:42:35;;;;;;;1.10;0.50;;;;;;;21.60;100.00;99147.36;1709304;83;21220;-54
2022/07/26 07:45:02;;;;;;;1.10;0.60;;;;;;;21.63;100.00;99146.51;1714062;81;20886;-54
2022/07/26 07:47:33;;;;;;;0.50;0.50;;;;;;;21.69;100.00;99151.88;1703306;83;21355;-54
2022/07/26 07:50:00;;;;;;;2.22;0.50;;;;;;;21.75;100.00;99152.61;1680169;83;20918;-54
2022/07/26 07:52:26;;;;;;;1.00;0.50;;;;;;;21.81;100.00;99158.30;1745799;80;20926;-52
2022/07/26 07:54:53;;;;;;;0.60;0.50;;;;;;;21.85;100.00;99162.45;1742597;80;21256;-55
2022/07/26 07:57:19;;;;;;;1.20;0.55;;;;;;;21.86;100.00;99162.78;1742289;80;21032;-56
2022/07/26 07:59:46;;;;;;;0.80;0.50;;;;;;;21.88;100.00;99162.11;1741311;80;21065;-53
2022/07/26 08:02:14;;;;;;;2.15;0.50;;;;;;;21.91;100.00;99158.20;1740326;80;21674;-54
2022/07/26 08:04:40;;;;;;;2.20;0.40;;;;;;;21.98;100.00;99163.93;1738106;80;21073;-54
2022/07/26 08:07:09;;;;;;;1.27;0.50;;;;;;;22.05;100.00;99164.49;1736702;80;21199;-56
2022/07/26 08:09:35;;;;;;;0.75;0.40;;;;;;;22.14;100.00;99164.04;1739364;80;21026;-53
2022/07/26 08:12:04;;;;;;;2.65;0.37;;;;;;;22.22;100.00;99155.36;1739927;80;21066;-55
2022/07/26 08:14:31;;;;;;;0.57;0.40;;;;;;;22.29;100.00;99156.93;1741937;80;21214;-53
2022/07/26 08:16:57;;;;;;;0.72;0.40;;;;;;;22.37;100.00;99152.03;1742027;80;21026;-55
2022/07/26 08:19:25;;;;;;;0.50;0.30;;;;;;;22.46;100.00;99150.52;1742286;80;21520;-56
2022/07/26 08:21:51;;;;;;;0.40;0.40;;;;;;;22.48;100.00;99144.36;1742149;80;21041;-56
2022/07/26 08:24:18;;;;;;;0.50;0.40;;;;;;;22.52;100.00;99148.51;1739870;80;21044;-55
2022/07/26 08:26:45;;;;;;;1.95;0.40;;;;;;;22.60;100.00;99147.68;1745158;80;21089;-56
2022/07/26 08:29:11;;;;;;;2.35;0.33;;;;;;;22.71;100.00;99146.02;1745631;80;21044;-54
2022/07/26 08:31:37;;;;;;;1.02;0.40;;;;;;;22.76;100.00;99150.52;1744952;80;21804;-56
2022/07/26 08:34:04;;;;;;;1.00;0.40;;;;;;;22.86;100.00;99147.64;1742920;80;21368;-56
2022/07/26 08:36:31;;;;;;;0.60;0.40;;;;;;;22.93;100.00;99146.81;1740716;80;21053;-55
2022/07/26 08:38:58;;;;;;;1.75;0.40;;;;;;;23.01;100.00;99141.84;1740951;80;21103;-55
2022/07/26 08:41:25;;;;;;;1.37;0.40;;;;;;;23.07;100.00;99143.05;1739147;80;21081;-55
2022/07/26 08:43:51;;;;;;;2.10;0.40;;;;;;;23.10;100.00;99149.59;1745069;80;22331;-55
2022/07/26 08:46:20;;;;;;;0.50;0.40;;;;;;;23.10;100.00;99142.22;1741119;80;21076;-55
2022/07/26 08:48:47;;;;;;;0.95;0.30;;;;;;;23.05;100.00;99141.88;1751769;80;21013;-56
2022/07/26 08:51:13;;;;;;;0.50;0.40;;;;;;;22.98;100.00;99145.78;1755102;80;21371;-56
2022/07/26 08:53:39;;;;;;;0.40;0.35;;;;;;;22.92;100.00;99145.09;1756928;80;21056;-54
2022/07/26 08:56:07;;;;;;;0.40;0.30;;;;;;;22.91;100.00;99146.62;1750977;80;22083;-56
2022/07/26 08:58:35;;;;;;;1.72;0.40;;;;;;;22.92;100.00;99146.45;1756769;80;21106;-55
2022/07/26 09:01:07;;;;;;;0.40;0.30;;;;;;;22.94;100.00;99152.64;1756398;80;21041;-55
2022/07/26 09:03:38;;;;;;;0.40;0.30;;;;;;;22.90;100.00;99149.88;1753742;80;21185;-55
2022/07/26 09:06:20;;;;;;;0.98;0.40;;;;;;;22.85;100.00;99145.41;1759974;80;21714;-55
2022/07/26 09:08:50;;;;;;;1.57;0.30;;;;;;;22.81;100.00;99145.38;1695080;82;21261;-54
2022/07/26 09:11:32;;;;;;;0.40;0.30;;;;;;;22.76;100.00;99134.06;1754283;80;21090;-55
2022/07/26 09:14:02;;;;;;;0.70;0.40;;;;;;;22.75;100.00;99133.70;1756551;80;21448;-54
2022/07/26 09:16:29;;;;;;;0.30;0.30;;;;;;;22.75;100.00;99139.20;1757312;80;21114;-53
2022/07/26 09:19:17;;;;;;;0.40;0.40;;;;;;;22.78;100.00;99133.39;1755857;80;21034;-56
2022/07/26 09:21:45;;;;;;;0.57;0.40;;;;;;;22.86;100.00;99136.16;1756414;80;21110;-54
2022/07/26 09:24:11;;;;;;;0.60;0.50;;;;;;;22.98;100.00;99122.45;1755854;79;21378;-54
2022/07/26 09:26:39;;;;;;;0.55;0.40;;;;;;;23.03;100.00;99125.22;1755534;79;21022;-54
2022/07/26 09:29:09;;;;;;;0.50;0.40;;;;;;;23.04;100.00;99125.05;1762556;80;21057;-52
2022/07/26 09:31:37;;;;;;;0.40;0.30;;;;;;;23.01;100.00;99118.01;1757292;80;21026;-54
2022/07/26 09:34:04;;;;;;;0.80;0.30;;;;;;;22.97;100.00;99122.61;1699951;82;21106;-53
2022/07/26 09:36:31;;;;;;;0.80;0.40;;;;;;;22.96;100.00;99120.92;1754697;79;21460;-54
2022/07/26 09:39:02;;;;;;;0.47;0.40;;;;;;;22.93;100.00;99121.25;1758782;79;20993;-55
2022/07/26 09:41:34;;;;;;;0.50;0.40;;;;;;;22.93;100.00;99123.48;1756499;80;21084;-53
2022/07/26 09:44:03;;;;;;;1.35;0.37;;;;;;;23.01;100.00;99130.88;1736164;80;21073;-55
2022/07/26 09:46:30;;;;;;;0.90;0.40;;;;;;;23.11;100.00;99126.09;1753173;80;21065;-55
2022/07/26 09:48:59;;;;;;;1.15;0.50;;;;;;;23.19;100.00;99123.36;1753106;80;21034;-53
2022/07/26 09:51:41;;;;;;;1.05;0.60;;;;;;;23.22;100.00;99121.62;1749498;80;21501;-54
2022/07/26 09:54:09;;;;;;;0.40;0.40;;;;;;;23.29;100.00;99118.58;1760047;80;21338;-55
2022/07/26 09:56:50;;;;;;;1.42;0.55;;;;;;;23.35;100.00;99109.66;1753654;80;21089;-55
2022/07/26 09:59:21;;;;;;;0.50;0.42;;;;;;;23.44;100.00;99114.63;1754575;80;21844;-55
2022/07/26 10:01:50;;;;;;;0.40;0.30;;;;;;;23.57;100.00;99112.77;1750689;80;20883;-55
2022/07/26 10:04:16;;;;;;;0.57;0.42;;;;;;;23.68;100.00;99111.91;1752262;80;21097;-54
2022/07/26 10:06:44;;;;;;;0.50;0.30;;;;;;;23.83;100.00;99121.69;1755437;80;21376;-55
2022/07/26 10:09:11;;;;;;;0.93;0.30;;;;;;;23.96;100.00;99115.16;1753711;80;21489;-56
2022/07/26 10:11:58;;;;;;;1.22;0.40;;;;;;;24.03;100.00;99118.91;1761625;80;22312;-55
2022/07/26 10:14:43;;;;;;;0.42;0.40;;;;;;;24.06;100.00;99112.22;1754081;80;21329;-55
2022/07/26 10:17:31;;;;;;;2.15;0.45;;;;;;;24.17;100.00;99123.34;1755795;80;21029;-55
2022/07/26 10:20:08;;;;;;;1.17;0.50;;;;;;;24.24;100.00;99119.77;1708122;82;21086;-56
2022/07/26 10:22:44;;;;;;;0.82;0.47;;;;;;;24.31;100.00;99109.78;1754237;80;20911;-54
2022/07/26 10:25:22;;;;;;;1.07;0.40;;;;;;;24.32;100.00;99118.38;1754707;80;21105;-56
2022/07/26 10:27:56;;;;;;;0.40;0.40;;;;;;;24.26;100.00;99115.45;1758242;80;20911;-55
2022/07/26 10:30:26;;;;;;;1.00;0.40;;;;;;;24.20;100.00;99115.61;1753562;80;20901;-55
2022/07/26 10:33:02;;;;;;;0.72;0.40;;;;;;;24.17;100.00;99115.95;1755082;80;21026;-55
2022/07/26 10:35:39;;;;;;;3.37;0.50;;;;;;;24.21;100.00;99106.88;1750495;80;21101;-55
2022/07/26 10:38:19;;;;;;;0.62;0.40;;;;;;;24.30;100.00;99104.45;1754363;80;21134;-55
2022/07/26 10:41:00;;;;;;;0.70;0.40;;;;;;;24.35;100.00;99104.77;1756726;80;21394;-55
2022/07/26 10:43:28;;;;;;;0.57;0.40;;;;;;;24.44;100.00;99102.33;1753624;80;21093;-56
2022/07/26 10:46:22;;;;;;;0.50;0.40;;;;;;;24.53;100.00;99101.26;1754147;80;21028;-55
2022/07/26 10:48:57;;;;;;;0.60;0.40;;;;;;;24.58;100.00;99100.22;1688755;82;21497;-56
2022/07/26 10:51:27;;;;;;;0.75;0.30;;;;;;;24.71;100.00;99098.25;1756117;80;21207;-56
2022/07/26 10:54:01;;;;;;;1.47;0.40;;;;;;;24.75;100.00;99110.08;1752636;80;21565;-56
2022/07/26 10:56:28;;;;;;;0.60;0.50;;;;;;;24.73;100.00;99105.30;1758426;80;21018;-55
2022/07/26 10:58:55;;;;;;;0.40;0.30;;;;;;;24.67;100.00;99107.38;1755743;80;21089;-56
2022/07/26 11:01:22;;;;;;;2.50;0.40;;;;;;;24.60;100.00;99111.88;1754708;80;21086;-55
2022/07/26 11:03:48;;;;;;;0.95;0.57;;;;;;;24.49;100.00;99102.66;1760614;80;21763;-55
2022/07/26 11:06:17;;;;;;;1.20;0.42;;;;;;;24.41;100.00;99106.28;1756858;80;21500;-55
2022/07/26 11:08:46;;;;;;;1.22;0.40;;;;;;;24.34;100.00;99097.54;1756358;80;21321;-54
2022/07/26 11:11:13;;;;;;;3.33;0.50;;;;;;;24.27;100.00;99097.91;1756732;80;21089;-55
2022/07/26 11:13:41;;;;;;;0.78;0.50;;;;;;;24.23;100.00;99096.05;1757295;80;21042;-54
2022/07/26 11:16:08;;;;;;;1.02;0.40;;;;;;;24.20;100.00;99096.36;1756246;80;21284;-56
2022/07/26 11:18:37;;;;;;;0.33;0.30;;;;;;;24.19;100.00;99099.28;1751772;80;21618;-55
2022/07/26 11:21:15;;;;;;;0.72;0.40;;;;;;;24.21;100.00;99095.36;1759117;80;22151;-54
2022/07/26 11:23:44;;;;;;;0.65;0.40;;;;;;;24.30;100.00;99092.07;1753809;80;21022;-55
2022/07/26 11:26:16;;;;;;;0.60;0.40;;;;;;;24.41;100.00;99084.27;1754935;80;21042;-55
2022/07/26 11:29:00;;;;;;;0.57;0.40;;;;;;;24.56;100.00;99081.66;1753220;80;21048;-54
2022/07/26 11:31:37;;;;;;;1.15;0.40;;;;;;;24.72;100.00;99084.84;1757247;80;21536;-54
2022/07/26 11:34:04;;;;;;;1.12;0.40;;;;;;;24.91;100.00;99089.04;1755781;80;21093;-55
2022/07/26 11:36:39;;;;;;;1.22;0.40;;;;;;;25.02;100.00;99096.89;1760622;80;21038;-56
2022/07/26 11:39:11;;;;;;;0.88;0.40;;;;;;;25.04;100.00;99090.18;1751694;80;21102;-55
2022/07/26 11:41:38;;;;;;;0.53;0.50;;;;;;;25.01;100.00;99086.41;1753947;80;21105;-55
2022/07/26 11:44:05;;;;;;;0.95;0.40;;;;;;;24.96;100.00;99087.99;1758519;80;21089;-55
2022/07/26 11:46:38;;;;;;;0.50;0.30;;;;;;;24.89;100.00;99091.45;1756236;80;21449;-54
2022/07/26 11:49:17;;;;;;;2.40;0.40;;;;;;;24.81;100.00;99086.00;1754447;79;21111;-55
2022/07/26 11:51:56;;;;;;;0.62;0.45;;;;;;;24.75;100.00;99079.81;1760344;80;21859;-55
2022/07/26 11:54:30;;;;;;;0.45;0.40;;;;;;;24.69;100.00;99078.30;1684633;83;21093;-54